Terminal Aerodrome Forecast
Issued by NWS

Home | Current Version | Previous Version | Text Only | Print | Product List | Glossary On
Versions: 1 2 3 4 5 6 7 8 9 10 11 12 13 14 15 16 17 18
000
FTUS42 KGSP 021731
TAFGMU
TAF
KGMU 021731Z 0218/0318 21003KT P6SM SCT060
     FM030000 VRB03KT P6SM BKN060
     FM031400 02003KT P6SM SCT060=

USA.gov is the U.S. government's official web portal to all federal, state and local government web resources and services.